Time;durP1;ratioP1;P1;durP2;ratioP2;P2;SDS_P1;SDS_P2;PMS_P1;PMS_P2;Temp;Humidity;BMP_temperature;BMP_pressure;BME280_temperature;BME280_humidity;BME280_pressure;Samples;Min_cycle;Max_cycle;Signal;HPM_P1;HPM_P2
2023/05/09 00:00:49;;;;;;;45.63;26.70;;;;;;;;;;5082067;28;20166;-66
2023/05/09 00:03:15;;;;;;;44.65;26.75;;;;;;;;;;5082723;28;20044;-66
2023/05/09 00:05:42;;;;;;;40.80;26.17;;;;;;;;;;5098024;28;20042;-66
2023/05/09 00:08:08;;;;;;;44.20;25.90;;;;;;;;;;5080279;28;20436;-66
2023/05/09 00:10:34;;;;;;;41.45;25.80;;;;;;;;;;5096699;28;20131;-66
2023/05/09 00:13:01;;;;;;;41.05;25.55;;;;;;;;;;5072831;28;20055;-66
2023/05/09 00:15:27;;;;;;;43.67;25.05;;;;;;;;;;5085488;28;20058;-65
2023/05/09 00:17:53;;;;;;;44.70;24.75;;;;;;;;;;5083789;28;20027;-66
2023/05/09 00:20:20;;;;;;;41.55;24.60;;;;;;;;;;5104503;27;20040;-66
2023/05/09 00:22:46;;;;;;;39.80;23.83;;;;;;;;;;5104498;28;20055;-66
2023/05/09 00:25:12;;;;;;;36.97;24.60;;;;;;;;;;5079148;28;20113;-66
2023/05/09 00:27:39;;;;;;;50.28;27.88;;;;;;;;;;5081200;27;20048;-66
2023/05/09 00:30:05;;;;;;;40.85;24.42;;;;;;;;;;5084494;27;20082;-66
2023/05/09 00:32:32;;;;;;;43.88;26.10;;;;;;;;;;5079899;28;20101;-66
2023/05/09 00:34:58;;;;;;;44.35;25.67;;;;;;;;;;5098908;27;20174;-66
2023/05/09 00:37:26;;;;;;;41.95;24.58;;;;;;;;;;5071262;28;20123;-66
2023/05/09 00:39:52;;;;;;;43.10;24.50;;;;;;;;;;5067111;28;20048;-66
2023/05/09 00:42:18;;;;;;;43.67;24.88;;;;;;;;;;5066359;28;20044;-66
2023/05/09 00:44:44;;;;;;;38.70;22.80;;;;;;;;;;5085841;28;20067;-66
2023/05/09 00:47:10;;;;;;;42.90;25.88;;;;;;;;;;5088613;28;20044;-66
2023/05/09 00:49:37;;;;;;;39.97;24.33;;;;;;;;;;5085015;28;20766;-66
2023/05/09 00:52:04;;;;;;;39.03;23.73;;;;;;;;;;5086130;27;20487;-66
2023/05/09 00:54:30;;;;;;;37.40;23.33;;;;;;;;;;5085376;28;20090;-66
2023/05/09 00:56:56;;;;;;;36.63;22.95;;;;;;;;;;5094679;28;20059;-66
2023/05/09 00:59:23;;;;;;;39.70;24.40;;;;;;;;;;5082602;28;20056;-66
2023/05/09 01:01:49;;;;;;;45.72;24.60;;;;;;;;;;5068965;28;20044;-66
2023/05/09 01:04:16;;;;;;;42.40;24.38;;;;;;;;;;5066017;27;20163;-66
2023/05/09 01:06:43;;;;;;;44.05;25.40;;;;;;;;;;5078268;28;20040;-66
2023/05/09 01:09:28;;;;;;;40.10;23.20;;;;;;;;;;5070637;28;20062;-66
2023/05/09 01:11:54;;;;;;;46.53;25.98;;;;;;;;;;5068226;28;20058;-66
2023/05/09 01:14:30;;;;;;;40.65;24.23;;;;;;;;;;5088915;27;20055;-66
2023/05/09 01:17:01;;;;;;;36.53;22.92;;;;;;;;;;5086043;27;20158;-66
2023/05/09 01:19:51;;;;;;;37.80;24.08;;;;;;;;;;5070124;28;20087;-66
2023/05/09 01:22:18;;;;;;;38.08;23.73;;;;;;;;;;5066232;28;20451;-66
2023/05/09 01:24:55;;;;;;;41.88;23.67;;;;;;;;;;5066777;28;20036;-66
2023/05/09 01:27:28;;;;;;;42.42;25.23;;;;;;;;;;5086685;28;20051;-66
2023/05/09 01:30:12;;;;;;;42.70;25.70;;;;;;;;;;5050982;28;20088;-66
2023/05/09 01:32:40;;;;;;;49.90;25.17;;;;;;;;;;5087386;28;20108;-66
2023/05/09 01:35:06;;;;;;;42.75;23.83;;;;;;;;;;5066462;28;20051;-66
2023/05/09 01:37:33;;;;;;;40.50;23.77;;;;;;;;;;5074445;28;20400;-66
2023/05/09 01:40:05;;;;;;;45.00;25.23;;;;;;;;;;5089783;27;20088;-66
2023/05/09 01:42:40;;;;;;;44.20;24.05;;;;;;;;;;5068977;28;20675;-66
2023/05/09 01:45:07;;;;;;;47.67;26.38;;;;;;;;;;5066241;28;20051;-66
2023/05/09 01:47:34;;;;;;;44.05;23.83;;;;;;;;;;5070440;28;20053;-66
2023/05/09 01:50:01;;;;;;;41.05;24.85;;;;;;;;;;5090208;28;20091;-66
2023/05/09 01:52:28;;;;;;;44.15;25.45;;;;;;;;;;5083202;27;20608;-67
2023/05/09 01:54:55;;;;;;;41.67;24.70;;;;;;;;;;5082171;27;20743;-66
2023/05/09 01:57:21;;;;;;;45.95;24.85;;;;;;;;;;5065389;28;20032;-66
2023/05/09 01:59:48;;;;;;;45.03;25.25;;;;;;;;;;5064740;28;20152;-66
2023/05/09 02:02:14;;;;;;;49.10;26.60;;;;;;;;;;5065483;28;20429;-66
2023/05/09 02:04:41;;;;;;;48.95;27.38;;;;;;;;;;5063733;28;20185;-66
2023/05/09 02:07:07;;;;;;;51.55;27.38;;;;;;;;;;5093291;28;21666;-65
2023/05/09 02:09:34;;;;;;;45.80;26.50;;;;;;;;;;5078012;28;20055;-66
2023/05/09 02:12:00;;;;;;;49.63;27.83;;;;;;;;;;5081234;27;20044;-66
2023/05/09 02:14:27;;;;;;;51.70;28.13;;;;;;;;;;5061520;28;20040;-66
2023/05/09 02:16:53;;;;;;;49.83;28.23;;;;;;;;;;5076724;28;20062;-66
2023/05/09 02:19:19;;;;;;;50.83;28.23;;;;;;;;;;5097020;28;20051;-66
2023/05/09 02:21:45;;;;;;;54.63;31.58;;;;;;;;;;5079129;28;20121;-66
2023/05/09 02:24:11;;;;;;;53.53;29.13;;;;;;;;;;5081040;28;20078;-66
2023/05/09 02:26:38;;;;;;;51.00;28.95;;;;;;;;;;5098175;27;20075;-66
2023/05/09 02:29:06;;;;;;;51.75;28.88;;;;;;;;;;5081968;28;20039;-66
2023/05/09 02:31:33;;;;;;;56.92;29.55;;;;;;;;;;5079275;28;20044;-66
2023/05/09 02:34:00;;;;;;;58.65;30.85;;;;;;;;;;5101607;28;20035;-66
2023/05/09 02:36:27;;;;;;;52.22;30.25;;;;;;;;;;5082447;28;20055;-66
2023/05/09 02:38:54;;;;;;;52.38;29.38;;;;;;;;;;5083225;28;20040;-66
2023/05/09 02:41:20;;;;;;;59.45;31.27;;;;;;;;;;5063657;28;20044;-66
2023/05/09 02:43:46;;;;;;;54.22;31.40;;;;;;;;;;5051977;28;20122;-66
2023/05/09 02:46:12;;;;;;;57.72;29.42;;;;;;;;;;5084995;28;20051;-66
2023/05/09 02:48:39;;;;;;;55.47;31.33;;;;;;;;;;5091408;28;20097;-66
2023/05/09 02:51:05;;;;;;;56.38;30.45;;;;;;;;;;5082361;28;20118;-66
2023/05/09 02:53:31;;;;;;;63.97;32.63;;;;;;;;;;5067255;28;20039;-66
2023/05/09 02:55:57;;;;;;;54.80;30.48;;;;;;;;;;5069465;28;20391;-66
2023/05/09 02:58:23;;;;;;;58.53;31.00;;;;;;;;;;5070802;28;20134;-66
2023/05/09 03:00:50;;;;;;;60.17;30.98;;;;;;;;;;5067713;28;20139;-66
2023/05/09 03:03:16;;;;;;;66.50;30.85;;;;;;;;;;5081634;28;20054;-66
2023/05/09 03:05:42;;;;;;;60.65;28.35;;;;;;;;;;5084568;28;20155;-66
2023/05/09 03:08:08;;;;;;;59.88;30.23;;;;;;;;;;5082277;28;20047;-66
2023/05/09 03:10:35;;;;;;;54.17;28.50;;;;;;;;;;5080743;28;20636;-66
2023/05/09 03:13:01;;;;;;;58.47;26.35;;;;;;;;;;5085017;28;20039;-66
2023/05/09 03:15:27;;;;;;;56.72;25.08;;;;;;;;;;5084794;28;20052;-66
2023/05/09 03:17:53;;;;;;;55.28;25.70;;;;;;;;;;5083647;28;20113;-66
2023/05/09 03:20:19;;;;;;;53.92;26.60;;;;;;;;;;5082039;28;20260;-66
2023/05/09 03:22:47;;;;;;;62.45;27.50;;;;;;;;;;5064724;28;20052;-66
2023/05/09 03:25:13;;;;;;;61.88;26.27;;;;;;;;;;5083164;28;20530;-66
2023/05/09 03:27:39;;;;;;;62.20;26.40;;;;;;;;;;5066489;28;20086;-66
2023/05/09 03:30:06;;;;;;;53.10;25.83;;;;;;;;;;5082019;28;20105;-66
2023/05/09 03:32:32;;;;;;;59.78;26.85;;;;;;;;;;5082777;28;20064;-65
2023/05/09 03:34:58;;;;;;;59.78;26.45;;;;;;;;;;5080182;28;20051;-66
2023/05/09 03:37:25;;;;;;;65.43;28.73;;;;;;;;;;5065786;28;20547;-66
2023/05/09 03:39:51;;;;;;;60.60;26.13;;;;;;;;;;5065970;28;20116;-66
2023/05/09 03:42:17;;;;;;;69.38;28.55;;;;;;;;;;5093248;28;20067;-66
2023/05/09 03:44:43;;;;;;;63.40;28.17;;;;;;;;;;5090612;28;20043;-66
2023/05/09 03:47:09;;;;;;;66.35;28.33;;;;;;;;;;5071364;28;20162;-66
2023/05/09 03:49:35;;;;;;;67.07;28.05;;;;;;;;;;5068076;28;20392;-66
2023/05/09 03:52:02;;;;;;;69.60;29.10;;;;;;;;;;5068710;28;20783;-66
2023/05/09 03:54:28;;;;;;;70.85;29.27;;;;;;;;;;5068620;28;20087;-66
2023/05/09 03:56:55;;;;;;;67.88;28.35;;;;;;;;;;5088894;28;20474;-66
2023/05/09 03:59:21;;;;;;;72.10;28.15;;;;;;;;;;5089698;27;20752;-66
2023/05/09 04:01:47;;;;;;;70.00;29.75;;;;;;;;;;5086714;27;20036;-66
2023/05/09 04:04:13;;;;;;;69.78;29.33;;;;;;;;;;5091103;27;20040;-65
2023/05/09 04:06:39;;;;;;;73.45;28.77;;;;;;;;;;5079218;28;20403;-65
2023/05/09 04:09:05;;;;;;;65.93;28.25;;;;;;;;;;5083727;28;20051;-66
2023/05/09 04:11:32;;;;;;;81.30;31.33;;;;;;;;;;5077910;28;20039;-66
2023/05/09 04:13:58;;;;;;;81.85;30.23;;;;;;;;;;5083256;28;20479;-66
2023/05/09 04:16:24;;;;;;;71.45;29.75;;;;;;;;;;5102626;28;20044;-66
2023/05/09 04:18:50;;;;;;;76.13;30.80;;;;;;;;;;5082000;28;20032;-66
2023/05/09 04:21:16;;;;;;;74.93;30.80;;;;;;;;;;5103924;27;20039;-66
2023/05/09 04:23:43;;;;;;;76.82;30.65;;;;;;;;;;5076083;28;20051;-66
2023/05/09 04:26:11;;;;;;;67.93;28.15;;;;;;;;;;5085851;28;20070;-66
2023/05/09 04:28:37;;;;;;;68.00;28.70;;;;;;;;;;5085833;28;21843;-66
2023/05/09 04:31:03;;;;;;;69.57;30.00;;;;;;;;;;5083038;28;20451;-66
2023/05/09 04:33:29;;;;;;;71.00;31.73;;;;;;;;;;5079161;28;20048;-66
2023/05/09 04:35:56;;;;;;;72.07;32.13;;;;;;;;;;5102958;28;20043;-66
2023/05/09 04:38:22;;;;;;;75.03;33.80;;;;;;;;;;5091196;28;20549;-66
2023/05/09 04:40:49;;;;;;;77.07;32.03;;;;;;;;;;5068477;28;20048;-70
2023/05/09 04:43:15;;;;;;;80.60;33.40;;;;;;;;;;5066888;28;20044;-67
2023/05/09 04:45:41;;;;;;;70.38;31.50;;;;;;;;;;5062543;28;20044;-66
2023/05/09 04:48:07;;;;;;;71.60;31.38;;;;;;;;;;5095698;28;20137;-66
2023/05/09 04:50:35;;;;;;;76.22;34.47;;;;;;;;;;5094811;28;20043;-66
2023/05/09 04:53:01;;;;;;;75.07;33.72;;;;;;;;;;5091401;28;20051;-66
2023/05/09 04:55:27;;;;;;;84.40;34.35;;;;;;;;;;5093757;28;20044;-66
2023/05/09 04:57:53;;;;;;;78.47;33.63;;;;;;;;;;5089001;27;20036;-66
2023/05/09 05:00:20;;;;;;;78.05;34.40;;;;;;;;;;5077522;28;20059;-65
2023/05/09 05:02:46;;;;;;;86.00;34.83;;;;;;;;;;5070741;28;20043;-66
2023/05/09 05:05:12;;;;;;;80.22;32.05;;;;;;;;;;5095202;28;20162;-66
2023/05/09 05:07:38;;;;;;;79.70;34.58;;;;;;;;;;5088949;27;20043;-66
2023/05/09 05:10:05;;;;;;;88.65;36.85;;;;;;;;;;5095017;27;20039;-66
2023/05/09 05:12:31;;;;;;;86.78;34.97;;;;;;;;;;5072500;28;20044;-66
2023/05/09 05:14:57;;;;;;;76.72;33.17;;;;;;;;;;5074798;28;20040;-66
2023/05/09 05:17:23;;;;;;;91.82;38.75;;;;;;;;;;5075892;28;20051;-66
2023/05/09 05:19:49;;;;;;;98.10;38.17;;;;;;;;;;5073920;28;20075;-65
2023/05/09 05:22:15;;;;;;;88.30;37.05;;;;;;;;;;5091680;27;20089;-66
2023/05/09 05:24:42;;;;;;;80.40;35.90;;;;;;;;;;5074731;28;20475;-66
2023/05/09 05:27:08;;;;;;;86.57;35.35;;;;;;;;;;5089105;27;20066;-66
2023/05/09 05:29:34;;;;;;;90.05;36.58;;;;;;;;;;5071688;28;20040;-66
2023/05/09 05:32:00;;;;;;;87.50;35.50;;;;;;;;;;5092355;27;20499;-67
2023/05/09 05:34:26;;;;;;;95.95;39.15;;;;;;;;;;5096969;27;20618;-66
2023/05/09 05:36:52;;;;;;;96.20;38.05;;;;;;;;;;5093284;27;20040;-66
2023/05/09 05:39:19;;;;;;;97.28;38.10;;;;;;;;;;5077598;28;20047;-66
2023/05/09 05:41:45;;;;;;;92.20;37.15;;;;;;;;;;5074915;28;20067;-66
2023/05/09 05:44:11;;;;;;;88.50;36.97;;;;;;;;;;5085219;28;20348;-66
2023/05/09 05:46:37;;;;;;;82.93;36.20;;;;;;;;;;5076835;27;20178;-66
2023/05/09 05:49:03;;;;;;;88.72;38.03;;;;;;;;;;5095198;28;20408;-66
2023/05/09 05:51:30;;;;;;;80.43;34.25;;;;;;;;;;5078012;28;20059;-66
2023/05/09 05:53:56;;;;;;;86.97;37.30;;;;;;;;;;5098525;27;20112;-66
2023/05/09 05:56:22;;;;;;;75.45;33.47;;;;;;;;;;5096487;27;20055;-66
2023/05/09 05:58:48;;;;;;;84.07;35.65;;;;;;;;;;5079175;28;21536;-67
2023/05/09 06:01:14;;;;;;;88.35;37.30;;;;;;;;;;5099011;27;20040;-67
2023/05/09 06:03:41;;;;;;;87.97;36.25;;;;;;;;;;5080469;28;20048;-67
2023/05/09 06:06:07;;;;;;;83.75;37.40;;;;;;;;;;5080678;28;20250;-67
2023/05/09 06:08:33;;;;;;;83.15;38.67;;;;;;;;;;5079681;28;20040;-66
2023/05/09 06:11:00;;;;;;;82.00;37.15;;;;;;;;;;5080195;28;20040;-66
2023/05/09 06:13:26;;;;;;;78.57;35.85;;;;;;;;;;5098419;28;20333;-66
2023/05/09 06:15:56;;;;;;;86.47;38.10;;;;;;;;;;5078118;28;20044;-66
2023/05/09 06:18:22;;;;;;;86.05;39.08;;;;;;;;;;5079639;28;20051;-70
2023/05/09 06:20:48;;;;;;;84.25;38.90;;;;;;;;;;5097368;28;20047;-66
2023/05/09 06:23:16;;;;;;;91.47;40.78;;;;;;;;;;5095727;28;20118;-66
2023/05/09 06:25:43;;;;;;;89.97;40.20;;;;;;;;;;5075069;28;20047;-66
2023/05/09 06:28:09;;;;;;;87.53;39.63;;;;;;;;;;5097017;28;20456;-66
2023/05/09 06:30:35;;;;;;;88.22;38.83;;;;;;;;;;5096605;28;20494;-68
2023/05/09 06:33:01;;;;;;;86.55;38.88;;;;;;;;;;5076556;27;20139;-66
2023/05/09 06:35:28;;;;;;;84.03;40.67;;;;;;;;;;5094137;28;20043;-66
2023/05/09 06:37:54;;;;;;;85.18;39.92;;;;;;;;;;5075471;28;20475;-66
2023/05/09 06:40:20;;;;;;;79.43;37.42;;;;;;;;;;5082873;28;20050;-66
2023/05/09 06:42:46;;;;;;;84.68;37.45;;;;;;;;;;5083181;28;20134;-66
2023/05/09 06:45:13;;;;;;;82.05;36.70;;;;;;;;;;5079008;28;20047;-67
2023/05/09 06:47:39;;;;;;;71.65;37.13;;;;;;;;;;5064259;28;20048;-66
2023/05/09 06:50:05;;;;;;;80.60;38.33;;;;;;;;;;5080789;28;20047;-66
2023/05/09 06:52:32;;;;;;;74.93;37.88;;;;;;;;;;5100853;28;20352;-66
2023/05/09 06:54:58;;;;;;;83.57;38.83;;;;;;;;;;5083056;27;20044;-66
2023/05/09 06:57:24;;;;;;;75.03;38.65;;;;;;;;;;5095812;28;20215;-66
2023/05/09 06:59:50;;;;;;;76.50;36.85;;;;;;;;;;5072140;28;20139;-66
2023/05/09 07:02:16;;;;;;;78.20;37.95;;;;;;;;;;5077599;28;20047;-66
2023/05/09 07:04:42;;;;;;;76.65;35.90;;;;;;;;;;5097139;28;20039;-65
2023/05/09 07:07:09;;;;;;;75.45;39.10;;;;;;;;;;5074316;28;20043;-66
2023/05/09 07:09:35;;;;;;;78.50;37.58;;;;;;;;;;5076680;28;20047;-66
2023/05/09 07:12:01;;;;;;;73.20;38.75;;;;;;;;;;5098087;28;20081;-66
2023/05/09 07:14:27;;;;;;;88.30;37.92;;;;;;;;;;5076918;28;20208;-66
2023/05/09 07:16:53;;;;;;;82.28;33.72;;;;;;;;;;5092502;28;20054;-66
2023/05/09 07:19:19;;;;;;;72.60;34.95;;;;;;;;;;5072819;28;20112;-66
2023/05/09 07:21:46;;;;;;;69.53;33.28;;;;;;;;;;5071995;28;20118;-66
2023/05/09 07:24:12;;;;;;;72.93;34.67;;;;;;;;;;5082133;28;20048;-66
2023/05/09 07:26:38;;;;;;;70.90;32.97;;;;;;;;;;5105303;28;20126;-66
2023/05/09 07:29:04;;;;;;;76.53;34.70;;;;;;;;;;5085990;28;20043;-66
2023/05/09 07:31:30;;;;;;;70.70;34.03;;;;;;;;;;5102676;28;20514;-66
2023/05/09 07:33:57;;;;;;;77.05;36.40;;;;;;;;;;5101532;27;20559;-66
2023/05/09 07:36:23;;;;;;;77.50;34.28;;;;;;;;;;5083745;28;20090;-66
2023/05/09 07:38:51;;;;;;;72.20;34.35;;;;;;;;;;5083836;28;20035;-66
2023/05/09 07:41:17;;;;;;;71.72;33.80;;;;;;;;;;5084974;28;20060;-66
2023/05/09 07:43:44;;;;;;;71.10;33.85;;;;;;;;;;5104268;28;20134;-66
2023/05/09 07:46:10;;;;;;;72.75;34.55;;;;;;;;;;5083098;28;20449;-66
2023/05/09 07:48:36;;;;;;;72.05;32.40;;;;;;;;;;5082394;28;20040;-66
2023/05/09 07:51:02;;;;;;;63.92;32.15;;;;;;;;;;5067701;28;20088;-66
2023/05/09 07:53:28;;;;;;;71.28;33.97;;;;;;;;;;5102602;28;20048;-67
2023/05/09 07:55:55;;;;;;;67.90;33.67;;;;;;;;;;5081461;28;20066;-67
2023/05/09 07:58:21;;;;;;;71.78;33.28;;;;;;;;;;5080254;27;20141;-66
2023/05/09 08:00:47;;;;;;;72.10;32.95;;;;;;;;;;5100187;28;20047;-67
2023/05/09 08:03:13;;;;;;;65.32;31.73;;;;;;;;;;5080353;28;20504;-66
2023/05/09 08:05:39;;;;;;;69.28;32.92;;;;;;;;;;5082725;28;20456;-67
2023/05/09 08:08:06;;;;;;;70.05;32.58;;;;;;;;;;5080035;28;20160;-67
2023/05/09 08:10:32;;;;;;;66.40;32.28;;;;;;;;;;5097485;28;20035;-66
2023/05/09 08:12:59;;;;;;;63.95;32.58;;;;;;;;;;5099496;27;20058;-66
2023/05/09 08:15:25;;;;;;;62.85;33.35;;;;;;;;;;5079403;27;20052;-67
2023/05/09 08:17:51;;;;;;;67.90;31.77;;;;;;;;;;5077985;27;20055;-66
2023/05/09 08:20:17;;;;;;;62.30;30.85;;;;;;;;;;5081146;28;20043;-67
2023/05/09 08:22:43;;;;;;;63.85;31.45;;;;;;;;;;5096723;27;20060;-66
2023/05/09 08:25:10;;;;;;;64.20;30.15;;;;;;;;;;5078828;28;20043;-66
2023/05/09 08:27:36;;;;;;;66.97;33.13;;;;;;;;;;5096507;27;20031;-66
2023/05/09 08:30:02;;;;;;;61.95;30.10;;;;;;;;;;5098320;27;20411;-66
2023/05/09 08:32:28;;;;;;;55.03;29.20;;;;;;;;;;5097680;28;20052;-66
2023/05/09 08:34:54;;;;;;;59.17;30.55;;;;;;;;;;5100354;28;20299;-66
2023/05/09 08:37:21;;;;;;;55.35;29.45;;;;;;;;;;5100498;28;20048;-66
2023/05/09 08:39:47;;;;;;;59.92;28.42;;;;;;;;;;5084279;28;20237;-64
2023/05/09 08:42:14;;;;;;;55.47;29.30;;;;;;;;;;5098866;27;20059;-67
2023/05/09 08:44:41;;;;;;;46.28;25.65;;;;;;;;;;5096525;28;20059;-66
2023/05/09 08:47:07;;;;;;;54.05;26.17;;;;;;;;;;5077047;28;20039;-67
2023/05/09 08:49:34;;;;;;;45.35;25.42;;;;;;;;;;5082334;28;20043;-67
2023/05/09 08:52:01;;;;;;;48.15;25.33;;;;;;;;;;5080059;28;20438;-66
2023/05/09 08:54:28;;;;;;;46.72;25.75;;;;;;;;;;5063627;28;20051;-66
2023/05/09 08:56:54;;;;;;;42.42;24.67;;;;;;;;;;5081371;28;20120;-67
2023/05/09 08:59:21;;;;;;;38.10;23.20;;;;;;;;;;5097462;27;20059;-66
2023/05/09 09:01:47;;;;;;;37.92;20.90;;;;;;;;;;5081425;28;20040;-67
2023/05/09 09:04:13;;;;;;;41.90;21.95;;;;;;;;;;5098644;28;20043;-67
2023/05/09 09:06:39;;;;;;;36.85;20.45;;;;;;;;;;5094711;28;20452;-66
2023/05/09 09:09:07;;;;;;;34.67;20.10;;;;;;;;;;5097776;28;20555;-67
2023/05/09 09:11:34;;;;;;;32.80;18.20;;;;;;;;;;5099770;28;20067;-67
2023/05/09 09:14:01;;;;;;;33.63;18.67;;;;;;;;;;5079004;28;20093;-66
2023/05/09 09:16:30;;;;;;;28.73;16.98;;;;;;;;;;5080125;28;20490;-67
2023/05/09 09:18:57;;;;;;;26.58;15.32;;;;;;;;;;5077717;27;20078;-66
2023/05/09 09:21:24;;;;;;;27.38;15.27;;;;;;;;;;5079552;28;20048;-67
2023/05/09 09:23:51;;;;;;;26.45;15.23;;;;;;;;;;5075747;28;20141;-66
2023/05/09 09:26:17;;;;;;;28.50;15.30;;;;;;;;;;5094533;27;20067;-66
2023/05/09 09:28:43;;;;;;;28.88;15.15;;;;;;;;;;5082806;28;20502;-67
2023/05/09 09:31:20;;;;;;;26.27;15.00;;;;;;;;;;5081813;28;20382;-67
2023/05/09 09:33:47;;;;;;;24.77;14.57;;;;;;;;;;5099260;28;20048;-66
2023/05/09 09:36:13;;;;;;;31.60;15.82;;;;;;;;;;5091013;28;20036;-66
2023/05/09 09:38:42;;;;;;;27.15;14.30;;;;;;;;;;5074634;27;20036;-73
2023/05/09 09:41:10;;;;;;;27.75;14.75;;;;;;;;;;5075522;28;20149;-66
2023/05/09 09:43:36;;;;;;;23.65;14.90;;;;;;;;;;5075429;28;20039;-68
2023/05/09 09:46:03;;;;;;;24.70;14.38;;;;;;;;;;5090880;28;20044;-70
2023/05/09 09:48:32;;;;;;;26.38;13.90;;;;;;;;;;5072146;28;20051;-69
2023/05/09 09:51:02;;;;;;;23.67;13.73;;;;;;;;;;5075959;28;20173;-69
2023/05/09 09:53:29;;;;;;;23.20;14.23;;;;;;;;;;5072108;28;20136;-66
2023/05/09 09:55:56;;;;;;;23.55;13.68;;;;;;;;;;5074215;27;20048;-67
2023/05/09 09:58:23;;;;;;;22.98;14.23;;;;;;;;;;5074368;28;20043;-66
2023/05/09 10:01:06;;;;;;;24.48;14.23;;;;;;;;;;5076042;28;20172;-66
2023/05/09 10:03:36;;;;;;;27.83;14.50;;;;;;;;;;5074432;28;20130;-66
2023/05/09 10:06:02;;;;;;;22.00;13.88;;;;;;;;;;5081931;28;20040;-66
2023/05/09 10:08:29;;;;;;;22.88;14.65;;;;;;;;;;5093237;27;20065;-66
2023/05/09 10:10:57;;;;;;;23.05;13.95;;;;;;;;;;5090122;27;20105;-66
2023/05/09 10:13:23;;;;;;;23.13;13.82;;;;;;;;;;5091785;28;20699;-66
2023/05/09 10:15:49;;;;;;;25.17;14.15;;;;;;;;;;5090798;28;20046;-66
2023/05/09 10:18:18;;;;;;;27.05;15.00;;;;;;;;;;5095333;27;20048;-66
2023/05/09 10:20:45;;;;;;;23.60;14.15;;;;;;;;;;5072229;28;20510;-66
2023/05/09 10:23:12;;;;;;;22.30;15.25;;;;;;;;;;5080898;28;20062;-66
2023/05/09 10:25:39;;;;;;;26.05;15.85;;;;;;;;;;5096012;28;20047;-66
2023/05/09 10:28:11;;;;;;;26.73;15.50;;;;;;;;;;5098530;28;20036;-66
2023/05/09 10:30:54;;;;;;;23.02;15.15;;;;;;;;;;5099154;28;20040;-66
2023/05/09 10:33:23;;;;;;;26.45;14.48;;;;;;;;;;5099015;28;20066;-66
2023/05/09 10:35:50;;;;;;;29.17;14.18;;;;;;;;;;5082030;28;20040;-66
2023/05/09 10:38:16;;;;;;;25.60;15.07;;;;;;;;;;5101672;28;20048;-66
2023/05/09 10:40:43;;;;;;;25.65;13.98;;;;;;;;;;5082396;28;20055;-66
2023/05/09 10:43:09;;;;;;;24.20;15.13;;;;;;;;;;5096094;28;20483;-66
2023/05/09 10:45:35;;;;;;;26.52;16.48;;;;;;;;;;5096154;28;20108;-66
2023/05/09 10:48:03;;;;;;;26.77;15.23;;;;;;;;;;5081304;28;20036;-66
2023/05/09 10:50:30;;;;;;;26.63;15.77;;;;;;;;;;5081860;28;20044;-66
2023/05/09 10:53:03;;;;;;;28.23;17.55;;;;;;;;;;5096874;28;20100;-66
2023/05/09 10:55:39;;;;;;;27.73;15.77;;;;;;;;;;5101327;28;20036;-66
2023/05/09 10:58:28;;;;;;;28.15;17.73;;;;;;;;;;5076004;28;20454;-65
2023/05/09 11:00:56;;;;;;;29.88;17.50;;;;;;;;;;5079394;28;20054;-66
2023/05/09 11:03:23;;;;;;;31.08;17.65;;;;;;;;;;5102211;28;20156;-66
2023/05/09 11:05:51;;;;;;;28.63;18.40;;;;;;;;;;5076403;28;20048;-66
2023/05/09 11:08:18;;;;;;;27.83;18.05;;;;;;;;;;5055853;28;20066;-66
2023/05/09 11:10:44;;;;;;;28.13;19.00;;;;;;;;;;5096535;28;20115;-66
2023/05/09 11:13:10;;;;;;;28.25;18.63;;;;;;;;;;5099041;28;20032;-65
2023/05/09 11:15:48;;;;;;;28.65;17.25;;;;;;;;;;5091549;28;20443;-65
2023/05/09 11:18:15;;;;;;;32.80;18.70;;;;;;;;;;5093922;28;20056;-66
2023/05/09 11:20:43;;;;;;;29.80;18.10;;;;;;;;;;5080908;28;20051;-65
2023/05/09 11:23:10;;;;;;;30.73;18.10;;;;;;;;;;5093542;28;20097;-66
2023/05/09 11:25:38;;;;;;;32.08;18.77;;;;;;;;;;5074995;28;20048;-66
2023/05/09 11:28:05;;;;;;;32.80;19.50;;;;;;;;;;5059934;28;20321;-66
2023/05/09 11:30:35;;;;;;;31.67;18.77;;;;;;;;;;5072994;28;20047;-66
2023/05/09 11:33:02;;;;;;;30.17;18.23;;;;;;;;;;5080395;28;20408;-66
2023/05/09 11:35:29;;;;;;;32.38;19.00;;;;;;;;;;5069943;28;20052;-66
2023/05/09 11:38:02;;;;;;;31.75;19.15;;;;;;;;;;5091762;28;20047;-66
2023/05/09 11:40:29;;;;;;;30.80;19.20;;;;;;;;;;5073860;28;20407;-66
2023/05/09 11:42:56;;;;;;;31.38;19.20;;;;;;;;;;5073343;28;20055;-66
2023/05/09 11:45:23;;;;;;;30.40;18.65;;;;;;;;;;5075734;28;20062;-66
2023/05/09 11:47:50;;;;;;;30.70;20.80;;;;;;;;;;5070725;28;20036;-66
2023/05/09 11:50:18;;;;;;;29.73;19.75;;;;;;;;;;5074242;28;20411;-66
2023/05/09 11:52:45;;;;;;;31.35;20.73;;;;;;;;;;5090654;28;20047;-66
2023/05/09 11:55:12;;;;;;;28.95;18.50;;;;;;;;;;5076911;28;20047;-66
2023/05/09 11:57:43;;;;;;;35.03;20.48;;;;;;;;;;5072301;28;20067;-66
2023/05/09 12:00:10;;;;;;;32.05;19.35;;;;;;;;;;5095757;28;20047;-66
2023/05/09 12:02:37;;;;;;;30.88;19.33;;;;;;;;;;5076914;28;20048;-67
2023/05/09 12:05:08;;;;;;;31.02;20.15;;;;;;;;;;5075762;28;20078;-65
2023/05/09 12:07:35;;;;;;;29.58;19.85;;;;;;;;;;5080222;28;20161;-66
2023/05/09 12:10:03;;;;;;;29.45;20.08;;;;;;;;;;5082757;28;20490;-65
2023/05/09 12:12:29;;;;;;;30.35;20.48;;;;;;;;;;5099659;27;20043;-65
2023/05/09 12:14:56;;;;;;;30.50;19.92;;;;;;;;;;5100092;27;20083;-65
2023/05/09 12:17:22;;;;;;;31.98;19.10;;;;;;;;;;5076321;28;20501;-65
2023/05/09 12:19:48;;;;;;;27.98;19.30;;;;;;;;;;5060278;28;20517;-65
2023/05/09 12:22:14;;;;;;;28.63;19.23;;;;;;;;;;5088519;27;20403;-64
2023/05/09 12:24:40;;;;;;;29.20;19.38;;;;;;;;;;5094762;28;20085;-66
2023/05/09 12:27:07;;;;;;;28.95;19.90;;;;;;;;;;5068957;28;20040;-66
2023/05/09 12:29:33;;;;;;;27.95;19.67;;;;;;;;;;5081635;28;20048;-65
2023/05/09 12:31:59;;;;;;;29.95;20.30;;;;;;;;;;5076960;28;20056;-66
2023/05/09 12:34:25;;;;;;;32.65;21.00;;;;;;;;;;5075338;28;20079;-67
2023/05/09 12:36:52;;;;;;;30.60;20.42;;;;;;;;;;5069818;28;20852;-66
2023/05/09 12:39:21;;;;;;;28.00;19.60;;;;;;;;;;5070141;28;20056;-66
2023/05/09 12:41:48;;;;;;;31.98;21.27;;;;;;;;;;5065471;28;20048;-66
2023/05/09 12:44:21;;;;;;;29.40;19.98;;;;;;;;;;5070057;28;20094;-66
2023/05/09 12:46:57;;;;;;;31.05;19.80;;;;;;;;;;5072697;28;20044;-66
2023/05/09 12:49:23;;;;;;;28.48;18.75;;;;;;;;;;5066933;28;20129;-66
2023/05/09 12:51:50;;;;;;;32.42;20.35;;;;;;;;;;5072685;28;20095;-66
2023/05/09 12:54:21;;;;;;;29.55;20.20;;;;;;;;;;5071414;28;20044;-65
2023/05/09 12:56:47;;;;;;;27.05;17.98;;;;;;;;;;5051486;28;20492;-66
2023/05/09 12:59:14;;;;;;;25.52;16.90;;;;;;;;;;5067510;28;20126;-67
2023/05/09 13:01:41;;;;;;;23.27;14.90;;;;;;;;;;5070781;28;20429;-66
2023/05/09 13:04:07;;;;;;;18.30;13.18;;;;;;;;;;5077726;28;20088;-65
2023/05/09 13:06:34;;;;;;;20.58;13.48;;;;;;;;;;5082140;28;20044;-65
2023/05/09 13:09:04;;;;;;;21.92;12.68;;;;;;;;;;5079348;28;20487;-65
2023/05/09 13:11:30;;;;;;;17.33;12.20;;;;;;;;;;5078330;28;20694;-65
2023/05/09 13:13:57;;;;;;;18.75;12.85;;;;;;;;;;5073683;28;20484;-65
2023/05/09 13:16:23;;;;;;;19.70;13.52;;;;;;;;;;5079828;28;20127;-65
2023/05/09 13:18:50;;;;;;;13.18;9.52;;;;;;;;;;5078800;28;20052;-65
2023/05/09 13:21:16;;;;;;;11.15;7.35;;;;;;;;;;5070031;28;20127;-65
2023/05/09 13:23:44;;;;;;;15.43;7.85;;;;;;;;;;5082643;28;20660;-65
2023/05/09 13:26:10;;;;;;;12.88;8.48;;;;;;;;;;5077117;28;20076;-65
2023/05/09 13:28:36;;;;;;;14.05;9.00;;;;;;;;;;5070943;28;20039;-65
2023/05/09 13:31:02;;;;;;;13.10;9.07;;;;;;;;;;5080398;28;20085;-65
2023/05/09 13:33:29;;;;;;;16.40;9.02;;;;;;;;;;5094108;27;20083;-65
2023/05/09 13:35:55;;;;;;;14.32;9.65;;;;;;;;;;5099679;27;20047;-65
2023/05/09 13:38:21;;;;;;;13.07;8.57;;;;;;;;;;5080161;28;20141;-65
2023/05/09 13:40:47;;;;;;;14.45;9.48;;;;;;;;;;5096573;28;20067;-65
2023/05/09 13:43:13;;;;;;;14.02;9.60;;;;;;;;;;5076566;28;20047;-65
2023/05/09 13:45:39;;;;;;;15.35;9.80;;;;;;;;;;5101522;28;20062;-65
2023/05/09 13:48:06;;;;;;;16.27;9.77;;;;;;;;;;5098677;27;20036;-66
2023/05/09 13:50:32;;;;;;;13.80;8.77;;;;;;;;;;5100622;27;20052;-65
2023/05/09 13:52:58;;;;;;;15.40;9.50;;;;;;;;;;5101818;27;20431;-65
2023/05/09 13:55:26;;;;;;;14.45;9.43;;;;;;;;;;5079579;28;20108;-65
2023/05/09 13:57:52;;;;;;;12.50;7.60;;;;;;;;;;5074635;28;20115;-65
2023/05/09 14:00:20;;;;;;;7.00;4.15;;;;;;;;;;5073762;28;20483;-65
2023/05/09 14:02:46;;;;;;;6.00;2.97;;;;;;;;;;5088807;27;20042;-65
2023/05/09 14:05:12;;;;;;;4.57;2.60;;;;;;;;;;5080886;27;20126;-65
2023/05/09 14:07:38;;;;;;;5.50;2.90;;;;;;;;;;5067356;28;20078;-65
2023/05/09 14:10:05;;;;;;;6.93;2.80;;;;;;;;;;5084653;28;20062;-65
2023/05/09 14:12:31;;;;;;;6.03;3.00;;;;;;;;;;5107109;28;20086;-65
2023/05/09 14:14:57;;;;;;;4.72;3.10;;;;;;;;;;5087874;28;20452;-66
2023/05/09 14:17:23;;;;;;;6.57;3.35;;;;;;;;;;5101840;28;20123;-65